Walker, West Virginia
Current Conditions -  °F | °C
As of 4:53 PM on Sunday 21 Dec 2014 (Local Time) from KPKB Reporting Station
Clear Clear  
Wind Chill: 33°   Ceiling: Unl
Heat Index: 38°   Visibility: 10mi
Dew Point: 25°   Wind: 6mph
Humidity: 60%   Direction: 30°NNE
Pressure: 30.23"   Gusts: NA
Location:  39.18°N, 81.38°W
Report Text: KPKB 212153Z 03005KT 10SM CLR 03/M04 A3023 RMK AO2 SLP243 T00331039
Loading
Personal Weather Stations






























Interactive Weather Map New forecast layout! Learn more

10-Day Weather Forecast

Advertisements
Track Severe Weather on mobile